Time,TemperatureF,DewpointF,PressureIn,WindDirection,WindDirectionDegrees,WindSpeedMPH,WindSpeedGustMPH,Humidity,HourlyPrecipIn,Conditions,Clouds,dailyrainin,SoftwareType,DateUTC
2013-02-12 00:00:00,43.7,41.0,29.64,NNE,19,0.0,1.0,89,0.00,,,0.76,weatherlink.com 1.10,2013-02-12 05:00:00,
2013-02-12 00:15:00,43.6,40.0,29.65,ESE,113,0.0,2.0,88,0.00,,,0.00,weatherlink.com 1.10,2013-02-12 05:15:00,
2013-02-12 00:30:00,43.5,40.0,29.65,ENE,66,0.0,2.0,86,0.00,,,0.00,weatherlink.com 1.10,2013-02-12 05:30:00,
2013-02-12 00:45:00,42.6,39.0,29.64,ENE,67,0.0,0.0,87,0.00,,,0.00,weatherlink.com 1.10,2013-02-12 05:45:00,
2013-02-12 01:00:00,43.2,39.0,29.64,SW,231,3.0,4.0,84,0.00,,,0.00,weatherlink.com 1.10,2013-02-12 06:00:00,
2013-02-12 01:15:00,44.0,38.0,29.64,WNW,301,0.0,3.0,80,0.00,,,0.00,weatherlink.com 1.10,2013-02-12 06:15:00,
2013-02-12 01:30:00,44.2,38.0,29.65,South,174,2.0,4.0,79,0.01,,,0.01,weatherlink.com 1.10,2013-02-12 06:30:00,
2013-02-12 01:45:00,43.9,34.0,29.65,SSE,162,1.0,10.0,68,0.01,,,0.01,weatherlink.com 1.10,2013-02-12 06:45:00,
2013-02-12 02:00:00,43.2,31.0,29.65,ESE,115,5.0,10.0,62,0.01,,,0.01,weatherlink.com 1.10,2013-02-12 07:00:00,
2013-02-12 02:15:00,42.8,29.0,29.66,WSW,249,1.0,6.0,59,0.01,,,0.01,weatherlink.com 1.10,2013-02-12 07:15:00,
2013-02-12 02:30:00,42.4,28.0,29.66,North,357,5.0,14.0,58,0.00,,,0.01,weatherlink.com 1.10,2013-02-12 07:30:00,
2013-02-12 02:46:00,42.0,28.0,29.67,NE,36,5.0,11.0,58,0.00,,,0.01,weatherlink.com 1.10,2013-02-12 07:46:00,
2013-02-12 03:01:00,41.6,28.0,29.66,East,79,0.0,10.0,58,0.00,,,0.01,weatherlink.com 1.10,2013-02-12 08:01:00,
2013-02-12 03:16:00,41.3,27.0,29.67,SSW,208,2.0,6.0,58,0.00,,,0.01,weatherlink.com 1.10,2013-02-12 08:16:00,
2013-02-12 03:31:00,41.3,27.0,29.68,NNW,343,2.0,7.0,58,0.00,,,0.01,weatherlink.com 1.10,2013-02-12 08:31:00,
2013-02-12 03:46:00,41.1,27.0,29.69,NE,53,0.0,10.0,58,0.00,,,0.01,weatherlink.com 1.10,2013-02-12 08:46:00,
2013-02-12 04:01:00,41.1,27.0,29.69,ENE,67,1.0,10.0,57,0.00,,,0.01,weatherlink.com 1.10,2013-02-12 09:01:00,
2013-02-12 04:16:00,40.8,28.0,29.70,SW,224,0.0,6.0,60,0.00,,,0.01,weatherlink.com 1.10,2013-02-12 09:16:00,
2013-02-12 04:31:00,40.7,27.0,29.70,SW,214,0.0,4.0,58,0.00,,,0.01,weatherlink.com 1.10,2013-02-12 09:31:00,
2013-02-12 04:46:00,40.6,27.0,29.70,ESE,115,0.0,4.0,58,0.00,,,0.01,weatherlink.com 1.10,2013-02-12 09:46:00,
2013-02-12 05:01:00,40.5,27.0,29.70,NW,320,1.0,4.0,58,0.00,,,0.01,weatherlink.com 1.10,2013-02-12 10:01:00,
2013-02-12 05:16:00,40.7,27.0,29.70,NNE,25,2.0,5.0,58,0.00,,,0.01,weatherlink.com 1.10,2013-02-12 10:16:00,
2013-02-12 05:31:00,40.6,27.0,29.70,East,95,0.0,9.0,59,0.00,,,0.01,weatherlink.com 1.10,2013-02-12 10:31:00,
2013-02-12 05:46:00,40.8,27.0,29.70,SE,124,1.0,6.0,58,0.00,,,0.01,weatherlink.com 1.10,2013-02-12 10:46:00,
2013-02-12 06:01:00,41.0,27.0,29.71,NNE,27,1.0,6.0,58,0.00,,,0.01,weatherlink.com 1.10,2013-02-12 11:01:00,
2013-02-12 06:16:00,41.2,27.0,29.71,ESE,104,1.0,7.0,57,0.00,,,0.01,weatherlink.com 1.10,2013-02-12 11:16:00,
2013-02-12 06:31:00,41.2,26.0,29.72,East,98,1.0,7.0,56,0.00,,,0.01,weatherlink.com 1.10,2013-02-12 11:31:00,
2013-02-12 06:46:00,41.2,26.0,29.73,North,10,0.0,7.0,56,0.00,,,0.01,weatherlink.com 1.10,2013-02-12 11:46:00,
2013-02-12 07:01:00,41.2,26.0,29.73,NE,43,2.0,6.0,55,0.00,,,0.01,weatherlink.com 1.10,2013-02-12 12:01:00,
2013-02-12 07:16:00,41.2,26.0,29.74,ESE,117,4.0,9.0,55,0.00,,,0.01,weatherlink.com 1.10,2013-02-12 12:16:00,
2013-02-12 07:31:00,41.4,26.0,29.75,SE,146,1.0,8.0,54,0.00,,,0.01,weatherlink.com 1.10,2013-02-12 12:31:00,
2013-02-12 07:46:00,41.6,26.0,29.75,SSE,166,1.0,8.0,54,0.00,,,0.01,weatherlink.com 1.10,2013-02-12 12:46:00,
2013-02-12 08:01:00,41.6,26.0,29.76,SE,140,1.0,5.0,55,0.00,,,0.01,weatherlink.com 1.10,2013-02-12 13:01:00,
2013-02-12 08:16:00,41.7,26.0,29.76,South,181,0.0,9.0,54,0.00,,,0.01,weatherlink.com 1.10,2013-02-12 13:16:00,
2013-02-12 08:31:00,42.2,26.0,29.77,NNE,32,1.0,8.0,54,0.00,,,0.01,weatherlink.com 1.10,2013-02-12 13:31:00,
2013-02-12 08:46:00,43.0,26.0,29.77,NW,314,0.0,6.0,52,0.00,,,0.01,weatherlink.com 1.10,2013-02-12 13:46:00,
2013-02-12 09:01:00,43.5,26.0,29.78,South,188,4.0,7.0,51,0.00,,,0.01,weatherlink.com 1.10,2013-02-12 14:01:00,
2013-02-12 09:16:00,43.4,26.0,29.78,SE,143,0.0,7.0,51,0.00,,,0.01,weatherlink.com 1.10,2013-02-12 14:16:00,
2013-02-12 09:31:00,43.1,26.0,29.78,NNW,342,0.0,5.0,52,0.00,,,0.01,weatherlink.com 1.10,2013-02-12 14:31:00,
2013-02-12 09:46:00,42.9,25.0,29.78,NW,311,0.0,8.0,50,0.00,,,0.01,weatherlink.com 1.10,2013-02-12 14:46:00,
2013-02-12 10:01:00,43.4,26.0,29.78,NE,53,0.0,5.0,51,0.00,,,0.01,weatherlink.com 1.10,2013-02-12 15:01:00,
2013-02-12 10:16:00,43.6,25.0,29.79,ESE,108,0.0,9.0,49,0.00,,,0.01,weatherlink.com 1.10,2013-02-12 15:16:00,
2013-02-12 10:31:00,43.8,26.0,29.79,NNE,28,4.0,7.0,50,0.00,,,0.01,weatherlink.com 1.10,2013-02-12 15:31:00,
2013-02-12 10:46:00,43.7,25.0,29.80,North,1,4.0,8.0,48,0.00,,,0.01,weatherlink.com 1.10,2013-02-12 15:46:00,
2013-02-12 11:01:00,43.7,25.0,29.80,NNE,16,0.0,5.0,49,0.00,,,0.01,weatherlink.com 1.10,2013-02-12 16:01:00,
2013-02-12 11:16:00,44.1,25.0,29.80,NE,36,3.0,7.0,47,0.00,,,0.01,weatherlink.com 1.10,2013-02-12 16:16:00,
2013-02-12 11:31:00,44.4,26.0,29.80,NE,40,0.0,3.0,48,0.00,,,0.01,weatherlink.com 1.10,2013-02-12 16:31:00,
2013-02-12 11:46:00,45.0,26.0,29.80,NNE,26,4.0,5.0,47,0.00,,,0.01,weatherlink.com 1.10,2013-02-12 16:46:00,
2013-02-12 12:01:00,44.7,25.0,29.80,ESE,110,2.0,7.0,47,0.00,,,0.01,weatherlink.com 1.10,2013-02-12 17:01:00,
2013-02-12 12:16:00,45.3,26.0,29.80,NNE,24,4.0,11.0,47,0.00,,,0.01,weatherlink.com 1.10,2013-02-12 17:16:00,
2013-02-12 12:32:00,46.1,26.0,29.80,East,101,2.0,7.0,45,0.00,,,0.01,weatherlink.com 1.10,2013-02-12 17:32:00,
2013-02-12 12:47:00,46.2,25.0,29.80,NE,35,2.0,9.0,44,0.00,,,0.01,weatherlink.com 1.10,2013-02-12 17:47:00,
2013-02-12 13:02:00,46.4,25.0,29.80,NNE,26,1.0,12.0,44,0.00,,,0.01,weatherlink.com 1.10,2013-02-12 18:02:00,
2013-02-12 13:17:00,45.8,25.0,29.80,South,179,2.0,8.0,45,0.00,,,0.01,weatherlink.com 1.10,2013-02-12 18:17:00,
2013-02-12 13:32:00,45.5,25.0,29.80,WSW,253,2.0,7.0,45,0.00,,,0.01,weatherlink.com 1.10,2013-02-12 18:32:00,
2013-02-12 13:47:00,46.2,26.0,29.80,NE,43,1.0,9.0,45,0.00,,,0.01,weatherlink.com 1.10,2013-02-12 18:47:00,
2013-02-12 14:02:00,46.2,25.0,29.80,West,264,0.0,8.0,43,0.00,,,0.01,weatherlink.com 1.10,2013-02-12 19:02:00,
2013-02-12 14:17:00,45.4,24.0,29.79,SSE,167,3.0,6.0,44,0.00,,,0.01,weatherlink.com 1.10,2013-02-12 19:17:00,
2013-02-12 14:32:00,45.4,24.0,29.80,NNW,335,5.0,7.0,44,0.00,,,0.01,weatherlink.com 1.10,2013-02-12 19:32:00,
2013-02-12 14:47:00,45.1,24.0,29.79,WNW,298,4.0,13.0,44,0.00,,,0.01,weatherlink.com 1.10,2013-02-12 19:47:00,
2013-02-12 15:02:00,44.0,24.0,29.80,NNE,29,4.0,10.0,45,0.00,,,0.01,weatherlink.com 1.10,2013-02-12 20:02:00,
2013-02-12 15:17:00,45.4,24.0,29.79,NNW,348,2.0,12.0,44,0.00,,,0.01,weatherlink.com 1.10,2013-02-12 20:17:00,
2013-02-12 15:32:00,45.3,24.0,29.80,SE,125,1.0,9.0,44,0.00,,,0.01,weatherlink.com 1.10,2013-02-12 20:32:00,
2013-02-12 15:47:00,44.9,25.0,29.79,NNE,23,4.0,9.0,45,0.00,,,0.01,weatherlink.com 1.10,2013-02-12 20:47:00,
2013-02-12 16:02:00,44.8,24.0,29.78,North,8,0.0,4.0,45,0.00,,,0.01,weatherlink.com 1.10,2013-02-12 21:02:00,
2013-02-12 16:17:00,44.3,25.0,29.76,NNW,339,1.0,6.0,46,0.00,,,0.01,weatherlink.com 1.10,2013-02-12 21:17:00,
2013-02-12 16:32:00,43.5,24.0,29.74,South,184,0.0,4.0,47,0.00,,,0.01,weatherlink.com 1.10,2013-02-12 21:32:00,
2013-02-12 16:47:00,43.0,25.0,29.75,NNE,12,0.0,3.0,49,0.00,,,0.01,weatherlink.com 1.10,2013-02-12 21:47:00,
2013-02-12 17:02:00,42.7,24.0,29.78,NE,34,0.0,4.0,47,0.00,,,0.01,weatherlink.com 1.10,2013-02-12 22:02:00,
2013-02-12 17:17:00,42.6,24.0,29.80,SE,140,0.0,4.0,49,0.00,,,0.01,weatherlink.com 1.10,2013-02-12 22:17:00,
2013-02-12 17:32:00,42.8,25.0,29.81,East,82,0.0,3.0,49,0.00,,,0.01,weatherlink.com 1.10,2013-02-12 22:32:00,
2013-02-12 17:47:00,42.9,24.0,29.86,NW,314,1.0,8.0,48,0.00,,,0.01,weatherlink.com 1.10,2013-02-12 22:47:00,
2013-02-12 18:02:00,42.6,25.0,29.86,NE,38,1.0,10.0,50,0.00,,,0.01,weatherlink.com 1.10,2013-02-12 23:02:00,
2013-02-12 18:17:00,42.2,25.0,29.89,NE,46,0.0,6.0,50,0.00,,,0.01,weatherlink.com 1.10,2013-02-12 23:17:00,
2013-02-12 18:32:00,41.9,24.0,29.88,SW,219,3.0,6.0,50,0.00,,,0.01,weatherlink.com 1.10,2013-02-12 23:32:00,
2013-02-12 18:47:00,41.9,24.0,29.88,East,91,3.0,6.0,50,0.00,,,0.01,weatherlink.com 1.10,2013-02-12 23:47:00,
2013-02-12 19:02:00,41.4,24.0,29.87,NNE,15,2.0,10.0,50,0.00,,,0.01,weatherlink.com 1.10,2013-02-13 00:02:00,
2013-02-12 19:17:00,41.2,24.0,29.88,SE,127,2.0,5.0,51,0.00,,,0.01,weatherlink.com 1.10,2013-02-13 00:17:00,
2013-02-12 19:32:00,41.3,24.0,29.88,SSE,162,2.0,5.0,50,0.00,,,0.01,weatherlink.com 1.10,2013-02-13 00:32:00,
2013-02-12 19:47:00,41.3,24.0,29.88,ENE,67,0.0,3.0,50,0.00,,,0.01,weatherlink.com 1.10,2013-02-13 00:47:00,
2013-02-12 20:02:00,41.0,23.0,29.88,South,184,0.0,4.0,50,0.00,,,0.01,weatherlink.com 1.10,2013-02-13 01:02:00,
2013-02-12 20:17:00,40.9,24.0,29.88,SSW,210,3.0,5.0,51,0.00,,,0.01,weatherlink.com 1.10,2013-02-13 01:17:00,
2013-02-12 20:32:00,40.5,23.0,29.87,ESE,121,0.0,8.0,50,0.00,,,0.01,weatherlink.com 1.10,2013-02-13 01:32:00,
2013-02-12 20:47:00,40.1,23.0,29.86,North,8,1.0,7.0,51,0.00,,,0.01,weatherlink.com 1.10,2013-02-13 01:47:00,
2013-02-12 21:02:00,39.7,23.0,29.85,WNW,287,0.0,11.0,52,0.00,,,0.01,weatherlink.com 1.10,2013-02-13 02:02:00,
2013-02-12 21:17:00,39.7,24.0,29.85,NE,46,0.0,6.0,53,0.00,,,0.01,weatherlink.com 1.10,2013-02-13 02:17:00,
2013-02-12 21:32:00,39.4,23.0,29.84,NNE,22,5.0,11.0,52,0.00,,,0.01,weatherlink.com 1.10,2013-02-13 02:32:00,
2013-02-12 21:47:00,39.2,23.0,29.83,NNW,338,2.0,4.0,53,0.00,,,0.01,weatherlink.com 1.10,2013-02-13 02:47:00,
2013-02-12 22:02:00,39.0,23.0,29.83,NE,44,0.0,3.0,53,0.00,,,0.01,weatherlink.com 1.10,2013-02-13 03:02:00,
2013-02-12 22:17:00,38.8,23.0,29.83,SE,125,1.0,5.0,53,0.00,,,0.01,weatherlink.com 1.10,2013-02-13 03:17:00,
2013-02-12 22:32:00,38.7,23.0,29.84,ENE,63,2.0,4.0,54,0.00,,,0.01,weatherlink.com 1.10,2013-02-13 03:32:00,
2013-02-12 22:47:00,38.5,23.0,29.83,NNW,348,1.0,4.0,54,0.00,,,0.01,weatherlink.com 1.10,2013-02-13 03:47:00,
2013-02-12 23:02:00,38.4,23.0,29.84,SSE,153,1.0,4.0,55,0.00,,,0.01,weatherlink.com 1.10,2013-02-13 04:02:00,
2013-02-12 23:17:00,38.3,23.0,29.84,NNE,29,2.0,3.0,55,0.00,,,0.01,weatherlink.com 1.10,2013-02-13 04:17:00,
2013-02-12 23:32:00,38.2,23.0,29.84,SSE,159,1.0,4.0,55,0.00,,,0.01,weatherlink.com 1.10,2013-02-13 04:32:00,
2013-02-12 23:47:00,38.0,23.0,29.85,NNE,30,1.0,2.0,55,0.00,,,0.01,weatherlink.com 1.10,2013-02-13 04:47:00,